Time;durP1;ratioP1;P1;durP2;ratioP2;P2;SDS_P1;SDS_P2;PMS_P1;PMS_P2;Temp;Humidity;BMP_temperature;BMP_pressure;BME280_temperature;BME280_humidity;BME280_pressure;Samples;Min_cycle;Max_cycle;Signal;HPM_P1;HPM_P2
2020/12/18 00:02:06;;;;;;;3.28;2.30;;;9.70;81.60;;;;;;4974648;28;20034;-76
2020/12/18 00:04:32;;;;;;;3.55;2.38;;;9.70;81.60;;;;;;4958689;28;20034;-77
2020/12/18 00:06:58;;;;;;;3.03;2.10;;;9.70;81.60;;;;;;4974225;28;20117;-76
2020/12/18 00:09:24;;;;;;;3.88;2.58;;;9.70;81.60;;;;;;4990550;28;20491;-76
2020/12/18 00:11:49;;;;;;;2.95;2.30;;;9.70;81.70;;;;;;4980309;28;20035;-76
2020/12/18 00:14:15;;;;;;;3.22;2.30;;;9.70;81.70;;;;;;4974955;28;20076;-76
2020/12/18 00:16:41;;;;;;;3.10;2.50;;;9.70;81.70;;;;;;4985215;28;20380;-76
2020/12/18 00:19:07;;;;;;;4.00;2.22;;;9.70;81.70;;;;;;4991356;28;20073;-76
2020/12/18 00:21:32;;;;;;;3.55;2.17;;;9.70;81.70;;;;;;4963709;28;20486;-76
2020/12/18 00:23:58;;;;;;;3.60;2.38;;;9.60;81.60;;;;;;4978380;28;20026;-73
2020/12/18 00:26:24;;;;;;;3.03;2.30;;;9.60;81.60;;;;;;4983254;28;20483;-73
2020/12/18 00:28:49;;;;;;;2.65;2.17;;;9.60;81.60;;;;;;5010921;28;20084;-73
2020/12/18 00:31:16;;;;;;;3.00;2.15;;;9.60;81.60;;;;;;4996080;28;20103;-76
2020/12/18 00:33:42;;;;;;;2.90;2.10;;;9.60;81.60;;;;;;4979081;28;20034;-76
2020/12/18 00:36:11;;;;;;;3.28;2.28;;;9.60;81.60;;;;;;4996041;28;20045;-74
2020/12/18 00:38:37;;;;;;;3.60;2.35;;;9.60;81.70;;;;;;4994919;28;20517;-75
2020/12/18 00:41:02;;;;;;;2.78;2.20;;;9.50;81.60;;;;;;4963050;28;20034;-73
2020/12/18 00:43:28;;;;;;;3.53;2.45;;;9.50;81.60;;;;;;4992383;28;20360;-74
2020/12/18 00:45:54;;;;;;;4.10;2.63;;;9.50;81.60;;;;;;4994352;28;20033;-73
2020/12/18 00:48:20;;;;;;;3.28;2.45;;;9.50;81.60;;;;;;5010867;28;20041;-74
2020/12/18 00:50:46;;;;;;;3.50;2.63;;;9.50;81.60;;;;;;4978804;28;20121;-77
2020/12/18 00:53:12;;;;;;;3.67;2.33;;;9.50;81.60;;;;;;4978930;28;20053;-74
2020/12/18 00:55:40;;;;;;;3.60;2.25;;;9.50;81.70;;;;;;4962650;28;20124;-74
2020/12/18 00:58:06;;;;;;;4.35;2.80;;;9.50;81.70;;;;;;4994601;28;20121;-75
2020/12/18 01:00:32;;;;;;;4.07;2.70;;;9.50;81.70;;;;;;4994164;28;20441;-74
2020/12/18 01:03:09;;;;;;;3.45;2.53;;;9.50;81.70;;;;;;4983619;28;20050;-74
2020/12/18 01:05:36;;;;;;;3.53;2.47;;;9.40;81.70;;;;;;4993835;28;20603;-79
2020/12/18 01:08:02;;;;;;;4.63;2.58;;;9.40;81.70;;;;;;4994401;28;20038;-74
2020/12/18 01:10:30;;;;;;;3.50;2.50;;;9.40;81.70;;;;;;4977816;28;20023;-74
2020/12/18 01:12:56;;;;;;;4.15;2.42;;;9.40;81.70;;;;;;4992829;28;20569;-74
2020/12/18 01:15:26;;;;;;;2.90;2.20;;;9.40;81.70;;;;;;4993846;28;20042;-74
2020/12/18 01:17:52;;;;;;;3.45;2.58;;;9.40;81.70;;;;;;4990156;28;20262;-74
2020/12/18 01:20:19;;;;;;;3.80;2.60;;;9.40;81.70;;;;;;5007126;28;20031;-74
2020/12/18 01:22:45;;;;;;;4.45;2.78;;;9.40;81.70;;;;;;4979141;28;20505;-74
2020/12/18 01:25:12;;;;;;;4.35;2.80;;;9.40;81.70;;;;;;4961897;28;20034;-74
2020/12/18 01:27:38;;;;;;;3.85;2.60;;;9.40;81.80;;;;;;4994280;28;20475;-77
2020/12/18 01:30:04;;;;;;;3.90;2.60;;;9.30;81.70;;;;;;5011026;28;20080;-73
2020/12/18 01:32:38;;;;;;;3.35;2.67;;;9.40;81.80;;;;;;4978164;28;20061;-77
2020/12/18 01:35:04;;;;;;;2.90;2.38;;;9.30;81.70;;;;;;4993738;28;20034;-73
2020/12/18 01:37:30;;;;;;;3.53;2.55;;;9.30;81.70;;;;;;4993684;28;20029;-74
2020/12/18 01:40:03;;;;;;;4.32;2.80;;;9.30;81.80;;;;;;4993841;28;20038;-74
2020/12/18 01:42:37;;;;;;;3.58;2.47;;;9.30;81.70;;;;;;4978620;28;20041;-75
2020/12/18 01:45:03;;;;;;;4.03;2.72;;;9.30;81.70;;;;;;4993654;28;20031;-74
2020/12/18 01:47:49;;;;;;;3.90;2.50;;;9.30;81.80;;;;;;4993961;28;20022;-74
2020/12/18 01:50:15;;;;;;;3.85;2.72;;;9.30;81.70;;;;;;4977571;28;20477;-74
2020/12/18 01:52:47;;;;;;;4.00;2.65;;;9.30;81.80;;;;;;4977794;28;20049;-74
2020/12/18 01:55:21;;;;;;;3.83;2.63;;;9.30;81.80;;;;;;4993761;28;20420;-74
2020/12/18 01:57:49;;;;;;;3.70;3.00;;;9.20;81.70;;;;;;4993074;28;20042;-75
2020/12/18 02:00:15;;;;;;;3.92;2.60;;;9.20;81.80;;;;;;4986508;28;20041;-74
2020/12/18 02:02:41;;;;;;;5.00;3.08;;;9.20;81.80;;;;;;4995245;28;20395;-75
2020/12/18 02:05:21;;;;;;;3.90;2.50;;;9.20;81.80;;;;;;4993844;28;20038;-74
2020/12/18 02:08:04;;;;;;;3.55;2.40;;;9.20;81.80;;;;;;4977557;28;20063;-74
2020/12/18 02:11:02;;;;;;;4.32;2.90;;;9.20;81.90;;;;;;4962708;28;20046;-74
2020/12/18 02:13:30;;;;;;;4.05;2.67;;;9.20;81.80;;;;;;4975899;28;20086;-74
2020/12/18 02:15:56;;;;;;;4.88;2.90;;;9.20;81.80;;;;;;4993361;28;20113;-74
2020/12/18 02:18:31;;;;;;;4.22;2.72;;;9.10;81.70;;;;;;4963234;28;20537;-75
2020/12/18 02:20:57;;;;;;;2.85;2.20;;;9.10;81.80;;;;;;4992623;28;20027;-74
2020/12/18 02:23:23;;;;;;;3.03;2.40;;;9.10;81.80;;;;;;4976954;28;20145;-74
2020/12/18 02:26:13;;;;;;;3.30;2.50;;;9.20;81.90;;;;;;4992355;28;20495;-74
2020/12/18 02:28:48;;;;;;;3.38;2.47;;;9.10;81.90;;;;;;4977252;28;20074;-73
2020/12/18 02:31:18;;;;;;;3.53;2.60;;;9.10;81.90;;;;;;4993022;28;20050;-74
2020/12/18 02:34:03;;;;;;;2.93;2.37;;;9.10;81.80;;;;;;4993503;28;20049;-75
2020/12/18 02:36:32;;;;;;;3.78;2.63;;;9.10;81.80;;;;;;4993398;28;20439;-74
2020/12/18 02:39:03;;;;;;;4.55;2.80;;;9.10;81.80;;;;;;4992852;28;20078;-73
2020/12/18 02:41:32;;;;;;;3.35;2.35;;;9.10;81.80;;;;;;4977400;28;20287;-73
2020/12/18 02:44:22;;;;;;;4.03;2.42;;;9.00;81.80;;;;;;4995531;28;20042;-74
2020/12/18 02:47:08;;;;;;;3.60;2.40;;;9.00;81.80;;;;;;4992329;28;20042;-73
2020/12/18 02:49:34;;;;;;;3.25;2.35;;;9.00;81.80;;;;;;4991671;28;20039;-74
2020/12/18 02:52:00;;;;;;;3.80;2.58;;;9.00;81.80;;;;;;4992521;28;20023;-73
2020/12/18 02:55:00;;;;;;;3.95;2.28;;;9.00;81.90;;;;;;5003449;28;20122;-74
2020/12/18 02:58:00;;;;;;;4.38;2.40;;;9.00;81.80;;;;;;4995512;28;20034;-74
2020/12/18 03:00:34;;;;;;;3.75;2.53;;;9.00;81.80;;;;;;4992359;28;20047;-73
2020/12/18 03:03:05;;;;;;;3.30;2.40;;;9.00;81.90;;;;;;4976150;28;20030;-74
2020/12/18 03:05:33;;;;;;;3.13;2.22;;;9.00;81.90;;;;;;5008678;28;20072;-74
2020/12/18 03:08:13;;;;;;;3.65;2.50;;;8.90;81.90;;;;;;4981192;28;20479;-74
2020/12/18 03:10:39;;;;;;;4.43;2.67;;;9.00;81.90;;;;;;4988380;28;20423;-74
2020/12/18 03:13:05;;;;;;;3.88;2.50;;;9.00;81.90;;;;;;4972852;28;20035;-74
2020/12/18 03:15:32;;;;;;;4.03;2.28;;;8.90;81.90;;;;;;4988940;28;20035;-74
2020/12/18 03:18:36;;;;;;;3.03;2.28;;;9.00;81.90;;;;;;4975851;28;20061;-74
2020/12/18 03:21:09;;;;;;;3.22;2.30;;;8.90;81.90;;;;;;4990771;28;20098;-74
2020/12/18 03:23:44;;;;;;;3.60;2.38;;;8.90;81.90;;;;;;4991946;28;20035;-74
2020/12/18 03:26:29;;;;;;;2.92;2.40;;;8.90;81.90;;;;;;4978776;28;20145;-75
2020/12/18 03:29:01;;;;;;;2.90;2.28;;;8.90;81.90;;;;;;4960746;28;20101;-73
2020/12/18 03:31:27;;;;;;;2.75;2.00;;;8.90;81.90;;;;;;4991687;28;20105;-74
2020/12/18 03:33:54;;;;;;;2.97;2.30;;;8.90;82.00;;;;;;4963311;28;20031;-74
2020/12/18 03:36:26;;;;;;;3.30;2.30;;;8.90;82.00;;;;;;4992426;28;20085;-73
2020/12/18 03:38:54;;;;;;;3.85;2.30;;;8.80;81.90;;;;;;4959938;28;20479;-74
2020/12/18 03:41:22;;;;;;;2.97;2.10;;;8.80;81.90;;;;;;4976145;28;20030;-74
2020/12/18 03:43:48;;;;;;;3.33;2.38;;;8.80;81.90;;;;;;4992294;28;20558;-75
2020/12/18 03:46:15;;;;;;;4.97;2.60;;;8.80;82.00;;;;;;4975131;28;20038;-75
2020/12/18 03:49:07;;;;;;;3.45;2.40;;;8.80;81.90;;;;;;4982629;28;20487;-75
2020/12/18 03:51:42;;;;;;;3.45;2.40;;;8.80;81.90;;;;;;4976684;28;20038;-74
2020/12/18 03:54:10;;;;;;;3.92;2.40;;;8.80;81.90;;;;;;4990646;28;20154;-74
2020/12/18 03:56:45;;;;;;;2.80;2.10;;;8.80;82.00;;;;;;4976144;28;20124;-73
2020/12/18 03:59:22;;;;;;;2.83;2.20;;;8.80;82.00;;;;;;4991375;28;20027;-73
2020/12/18 04:02:00;;;;;;;3.45;2.00;;;8.80;82.00;;;;;;4990996;28;20080;-74
2020/12/18 04:04:27;;;;;;;2.97;2.40;;;8.80;82.00;;;;;;4987674;28;20064;-74
2020/12/18 04:06:57;;;;;;;3.92;2.42;;;8.80;82.00;;;;;;4990720;28;20130;-74
2020/12/18 04:09:23;;;;;;;3.97;2.40;;;8.70;81.90;;;;;;4971722;28;20031;-76
2020/12/18 04:12:08;;;;;;;3.65;2.50;;;8.80;82.00;;;;;;4989846;28;20494;-74
2020/12/18 04:14:39;;;;;;;2.90;2.20;;;8.80;82.00;;;;;;4975744;28;20034;-73
2020/12/18 04:17:13;;;;;;;2.97;2.00;;;8.80;82.00;;;;;;4991119;28;20057;-74
2020/12/18 04:19:42;;;;;;;4.72;2.38;;;8.70;81.90;;;;;;4991103;28;20084;-74
2020/12/18 04:22:09;;;;;;;3.80;2.60;;;8.70;81.90;;;;;;4991450;28;20435;-74
2020/12/18 04:25:07;;;;;;;2.63;2.10;;;8.70;82.00;;;;;;4978209;28;20391;-76
2020/12/18 04:27:39;;;;;;;3.13;2.33;;;8.70;81.90;;;;;;4976174;28;20038;-74
2020/12/18 04:30:06;;;;;;;2.65;2.03;;;8.70;81.90;;;;;;4990839;28;20035;-74
2020/12/18 04:32:36;;;;;;;3.30;2.30;;;8.70;82.00;;;;;;4975617;28;20036;-74
2020/12/18 04:35:02;;;;;;;3.45;2.30;;;8.70;82.00;;;;;;4991344;28;20034;-74
2020/12/18 04:37:45;;;;;;;3.60;2.30;;;8.70;82.00;;;;;;4977673;28;20042;-75
2020/12/18 04:40:22;;;;;;;2.78;2.10;;;8.70;82.00;;;;;;4976249;28;20030;-76
2020/12/18 04:43:02;;;;;;;2.63;2.13;;;8.70;82.00;;;;;;4991560;28;20069;-76
2020/12/18 04:45:28;;;;;;;3.75;2.30;;;8.60;81.90;;;;;;4975155;28;20554;-74
2020/12/18 04:47:59;;;;;;;4.00;2.50;;;8.70;82.00;;;;;;4974890;28;20151;-74
2020/12/18 04:50:28;;;;;;;3.63;2.50;;;8.70;82.00;;;;;;4975785;28;20045;-74
2020/12/18 04:53:11;;;;;;;4.13;2.15;;;8.60;82.00;;;;;;4976705;28;20105;-73
2020/12/18 04:55:53;;;;;;;2.42;1.98;;;8.70;82.10;;;;;;4991344;28;20084;-75
2020/12/18 04:58:30;;;;;;;3.50;2.30;;;8.60;82.00;;;;;;4992230;28;20030;-74
2020/12/18 05:00:59;;;;;;;3.72;2.05;;;8.60;82.00;;;;;;4975888;28;20464;-74
2020/12/18 05:03:52;;;;;;;2.92;2.20;;;8.60;82.00;;;;;;4988159;28;20117;-75
2020/12/18 05:06:19;;;;;;;2.85;2.28;;;8.60;82.00;;;;;;4990853;28;20027;-75
2020/12/18 05:08:45;;;;;;;3.78;2.22;;;8.60;82.00;;;;;;4978404;28;20410;-74
2020/12/18 05:11:25;;;;;;;3.00;2.17;;;8.60;82.00;;;;;;4993798;28;20046;-74
2020/12/18 05:14:01;;;;;;;3.95;2.20;;;8.60;82.10;;;;;;4980149;28;20037;-74
2020/12/18 05:16:30;;;;;;;4.13;2.47;;;8.60;82.00;;;;;;4978487;28;20042;-74
2020/12/18 05:19:21;;;;;;;2.63;1.77;;;8.60;82.10;;;;;;4993839;28;20060;-73
2020/12/18 05:22:13;;;;;;;3.00;2.10;;;8.60;82.00;;;;;;4971863;28;20042;-73
2020/12/18 05:24:56;;;;;;;2.80;2.10;;;8.60;82.00;;;;;;4994419;28;20092;-73
2020/12/18 05:27:23;;;;;;;3.67;2.08;;;8.60;82.00;;;;;;4994286;28;20387;-73
2020/12/18 05:29:50;;;;;;;2.72;1.90;;;8.50;82.00;;;;;;4978399;28;20058;-74
2020/12/18 05:32:37;;;;;;;3.25;2.10;;;8.50;82.10;;;;;;4986989;28;20106;-74
2020/12/18 05:35:19;;;;;;;3.22;2.10;;;8.50;82.00;;;;;;4993181;28;20037;-74
2020/12/18 05:38:01;;;;;;;2.75;2.05;;;8.50;82.00;;;;;;4979392;28;20041;-74
2020/12/18 05:41:06;;;;;;;3.08;2.20;;;8.50;82.00;;;;;;4975354;28;20034;-74
2020/12/18 05:43:42;;;;;;;2.92;2.30;;;8.50;82.00;;;;;;4978449;28;20042;-75
2020/12/18 05:46:46;;;;;;;3.00;2.28;;;8.50;82.00;;;;;;4985279;28;20042;-74
2020/12/18 05:49:32;;;;;;;3.90;2.30;;;8.50;82.00;;;;;;4993333;28;20034;-74
2020/12/18 05:52:08;;;;;;;2.45;1.88;;;8.50;82.10;;;;;;4980427;28;20027;-74
2020/12/18 05:54:50;;;;;;;2.45;2.05;;;8.50;82.10;;;;;;4993762;28;20443;-74
2020/12/18 05:57:16;;;;;;;2.92;2.15;;;8.50;82.10;;;;;;4977470;28;20104;-73
2020/12/18 05:59:54;;;;;;;2.88;1.98;;;8.40;82.10;;;;;;4979423;28;20064;-73
2020/12/18 06:02:43;;;;;;;3.17;2.17;;;8.40;82.10;;;;;;4986989;28;20498;-73
2020/12/18 06:05:19;;;;;;;2.30;1.88;;;8.40;82.10;;;;;;4993033;28;20493;-74
2020/12/18 06:08:15;;;;;;;3.05;2.08;;;8.40;82.10;;;;;;4993274;28;20030;-75
2020/12/18 06:10:43;;;;;;;3.47;2.17;;;8.40;82.10;;;;;;4994339;28;20022;-74
2020/12/18 06:13:18;;;;;;;2.33;2.00;;;8.40;82.10;;;;;;4963272;28;20563;-75
2020/12/18 06:15:57;;;;;;;3.38;2.05;;;8.40;82.10;;;;;;4978527;28;20403;-73
2020/12/18 06:18:42;;;;;;;2.53;2.10;;;8.40;82.10;;;;;;4992380;28;20050;-74
2020/12/18 06:21:13;;;;;;;3.38;2.00;;;8.40;82.20;;;;;;4992807;28;20030;-73
2020/12/18 06:23:41;;;;;;;2.38;1.98;;;8.40;82.10;;;;;;4992314;28;20039;-73
2020/12/18 06:26:35;;;;;;;2.28;1.73;;;8.40;82.10;;;;;;4992587;28;20514;-73
2020/12/18 06:29:22;;;;;;;2.67;2.00;;;8.40;82.10;;;;;;4992971;28;20033;-73
2020/12/18 06:32:22;;;;;;;3.53;1.70;;;8.40;82.20;;;;;;4977955;28;20054;-75
2020/12/18 06:35:30;;;;;;;3.13;2.10;;;8.40;82.10;;;;;;5003077;28;20037;-74
2020/12/18 06:38:14;;;;;;;2.47;1.92;;;8.40;82.10;;;;;;4993987;28;20434;-78
2020/12/18 06:40:48;;;;;;;2.83;2.20;;;8.40;82.10;;;;;;4992441;28;20121;-73
2020/12/18 06:43:35;;;;;;;2.47;1.80;;;8.40;82.10;;;;;;4977892;28;20042;-74
2020/12/18 06:46:19;;;;;;;2.80;2.03;;;8.30;82.20;;;;;;4978205;28;20053;-78
2020/12/18 06:49:05;;;;;;;3.05;2.03;;;8.40;82.20;;;;;;4975448;28;20034;-75
2020/12/18 06:51:50;;;;;;;3.97;2.13;;;8.30;82.10;;;;;;4993357;28;20094;-75
2020/12/18 06:54:29;;;;;;;2.80;1.90;;;8.40;82.20;;;;;;4947408;28;20042;-74
2020/12/18 06:57:20;;;;;;;1.92;1.60;;;8.40;82.20;;;;;;4976994;28;20035;-75
2020/12/18 06:59:49;;;;;;;2.20;1.73;;;8.30;82.30;;;;;;4991938;28;20462;-76
2020/12/18 07:02:34;;;;;;;2.33;1.65;;;8.40;82.20;;;;;;4979322;28;20030;-75
2020/12/18 07:05:00;;;;;;;2.60;1.85;;;8.40;82.40;;;;;;4992221;28;20166;-75
2020/12/18 07:07:25;;;;;;;2.55;1.75;;;8.40;82.20;;;;;;4991986;28;20030;-75
2020/12/18 07:09:52;;;;;;;2.42;1.80;;;8.40;82.20;;;;;;4991434;28;20030;-75
2020/12/18 07:12:18;;;;;;;2.30;1.73;;;8.40;82.20;;;;;;4959733;28;20026;-80
2020/12/18 07:14:49;;;;;;;2.10;1.80;;;8.40;82.30;;;;;;4992033;28;20103;-75
2020/12/18 07:17:15;;;;;;;2.78;2.05;;;8.40;82.30;;;;;;4991921;28;20046;-75
2020/12/18 07:19:44;;;;;;;2.80;1.83;;;8.40;82.30;;;;;;4991521;28;20041;-76
2020/12/18 07:22:21;;;;;;;1.85;1.55;;;8.40;82.30;;;;;;4992960;28;20036;-76
2020/12/18 07:24:47;;;;;;;2.25;1.58;;;8.40;82.20;;;;;;4991830;28;20031;-75
2020/12/18 07:27:14;;;;;;;2.40;1.85;;;8.40;82.30;;;;;;4991597;28;20479;-75
2020/12/18 07:29:40;;;;;;;2.00;1.75;;;8.40;82.30;;;;;;4992956;28;20034;-76
2020/12/18 07:32:06;;;;;;;2.35;1.90;;;8.40;82.30;;;;;;4992118;28;20553;-75
2020/12/18 07:34:32;;;;;;;2.55;1.80;;;8.40;82.30;;;;;;5007788;28;20034;-78
2020/12/18 07:37:12;;;;;;;3.10;1.70;;;8.40;82.20;;;;;;4991314;28;20041;-75
2020/12/18 07:39:38;;;;;;;1.98;1.60;;;8.40;82.30;;;;;;4991227;28;20062;-75
2020/12/18 07:42:04;;;;;;;3.95;1.98;;;8.40;82.20;;;;;;4959157;28;20069;-76
2020/12/18 07:44:30;;;;;;;3.05;1.95;;;8.40;82.20;;;;;;4990981;28;20030;-77
2020/12/18 07:46:56;;;;;;;3.78;1.70;;;8.40;82.20;;;;;;4991183;28;20046;-75
2020/12/18 07:49:24;;;;;;;2.75;1.55;;;8.40;82.30;;;;;;4990087;28;20049;-79
2020/12/18 07:51:50;;;;;;;3.17;1.90;;;8.50;82.40;;;;;;4975621;28;20030;-77
2020/12/18 07:54:17;;;;;;;1.77;1.60;;;8.50;82.30;;;;;;4991853;28;20455;-77
2020/12/18 07:56:43;;;;;;;2.00;1.70;;;8.50;82.40;;;;;;4974905;28;20037;-77
2020/12/18 07:59:09;;;;;;;3.05;1.67;;;8.50;82.40;;;;;;4975273;28;20034;-77
2020/12/18 08:01:36;;;;;;;2.75;1.70;;;8.50;82.40;;;;;;4991304;28;20390;-76
2020/12/18 08:04:08;;;;;;;3.13;1.63;;;8.50;82.40;;;;;;4991475;28;20027;-76
2020/12/18 08:06:37;;;;;;;3.03;1.70;;;8.50;82.40;;;;;;4986801;28;20038;-76
2020/12/18 08:09:11;;;;;;;2.53;1.70;;;8.50;82.40;;;;;;4975305;28;20479;-76
2020/12/18 08:11:42;;;;;;;1.48;1.35;;;8.50;82.40;;;;;;4986898;28;20041;-75
2020/12/18 08:14:10;;;;;;;2.03;1.75;;;8.50;82.40;;;;;;4991196;28;20123;-75
2020/12/18 08:16:36;;;;;;;2.10;1.52;;;8.50;82.40;;;;;;4974503;28;20434;-76
2020/12/18 08:19:05;;;;;;;1.77;1.60;;;8.50;82.30;;;;;;4992176;28;20031;-76
2020/12/18 08:21:37;;;;;;;3.00;1.85;;;8.50;82.40;;;;;;4990761;28;20022;-77
2020/12/18 08:24:12;;;;;;;2.53;1.80;;;8.50;82.40;;;;;;4992137;28;20037;-75
2020/12/18 08:26:49;;;;;;;2.28;1.50;;;8.50;82.40;;;;;;4991672;28;20034;-77
2020/12/18 08:29:18;;;;;;;1.67;1.58;;;8.50;82.40;;;;;;5008304;28;20034;-77
2020/12/18 08:31:45;;;;;;;3.10;1.70;;;8.60;82.40;;;;;;4975328;28;20506;-77
2020/12/18 08:34:15;;;;;;;1.95;1.60;;;8.60;82.40;;;;;;5007272;28;20034;-76
2020/12/18 08:36:44;;;;;;;2.45;1.50;;;8.60;82.40;;;;;;4990611;28;20030;-77
2020/12/18 08:39:11;;;;;;;2.47;1.65;;;8.60;82.40;;;;;;4991084;28;20026;-76
2020/12/18 08:41:50;;;;;;;1.77;1.60;;;8.60;82.40;;;;;;4992515;28;20474;-76
2020/12/18 08:44:28;;;;;;;2.40;1.88;;;8.60;82.50;;;;;;5010113;28;20058;-76
2020/12/18 08:46:56;;;;;;;1.90;1.60;;;8.60;82.50;;;;;;5011493;28;20058;-78
2020/12/18 08:49:24;;;;;;;3.60;1.92;;;8.60;82.40;;;;;;4979048;28;20026;-76
2020/12/18 08:51:53;;;;;;;2.38;1.70;;;8.60;82.40;;;;;;4994743;28;20022;-75
2020/12/18 08:54:27;;;;;;;3.22;1.80;;;8.60;82.40;;;;;;4994790;28;20125;-76
2020/12/18 08:57:17;;;;;;;3.40;1.77;;;8.70;82.50;;;;;;4979519;28;20045;-77
2020/12/18 09:00:11;;;;;;;2.13;1.70;;;8.70;82.50;;;;;;4993967;28;20114;-77
2020/12/18 09:02:44;;;;;;;1.77;1.60;;;8.70;82.50;;;;;;4977889;28;20026;-76
2020/12/18 09:05:17;;;;;;;2.00;1.73;;;8.70;82.40;;;;;;5010189;28;20077;-77
2020/12/18 09:07:50;;;;;;;2.00;1.70;;;8.70;82.50;;;;;;5010710;28;20034;-75
2020/12/18 09:10:52;;;;;;;2.17;1.77;;;8.70;82.50;;;;;;4978875;28;20049;-75
2020/12/18 09:13:29;;;;;;;2.63;1.88;;;8.70;82.60;;;;;;4987887;28;20074;-77
2020/12/18 09:16:00;;;;;;;3.72;1.65;;;8.70;82.50;;;;;;4978592;28;20038;-76
2020/12/18 09:18:50;;;;;;;2.00;1.70;;;8.70;82.50;;;;;;4995671;28;20497;-77
2020/12/18 09:21:18;;;;;;;3.05;1.70;;;8.80;82.50;;;;;;5011260;28;20129;-76
2020/12/18 09:23:48;;;;;;;2.67;1.83;;;8.80;82.50;;;;;;4978246;28;20044;-77
2020/12/18 09:26:28;;;;;;;2.33;1.75;;;8.80;82.50;;;;;;4995619;28;20125;-76
2020/12/18 09:28:54;;;;;;;3.15;1.95;;;8.80;82.60;;;;;;4994069;28;20088;-75
2020/12/18 09:31:20;;;;;;;4.43;1.83;;;8.80;83.10;;;;;;5010343;28;20054;-75
2020/12/18 09:33:46;;;;;;;2.97;1.73;;;8.80;83.10;;;;;;4977255;28;20117;-76
2020/12/18 09:36:14;;;;;;;2.88;2.00;;;8.80;82.50;;;;;;4995561;28;20110;-75
2020/12/18 09:38:45;;;;;;;2.80;2.08;;;8.90;82.60;;;;;;4993882;28;20034;-76
2020/12/18 09:41:22;;;;;;;2.22;1.90;;;8.90;82.60;;;;;;5010401;28;20053;-76
2020/12/18 09:43:49;;;;;;;3.42;2.08;;;8.90;82.50;;;;;;4993417;28;20061;-76
2020/12/18 09:46:18;;;;;;;2.30;1.80;;;8.90;82.40;;;;;;4994395;28;20050;-79
2020/12/18 09:48:46;;;;;;;2.08;1.77;;;9.00;82.50;;;;;;4992624;28;20109;-76
2020/12/18 09:51:14;;;;;;;3.35;1.88;;;9.00;82.50;;;;;;4977376;28;20026;-76
2020/12/18 09:53:40;;;;;;;3.08;2.10;;;9.00;82.50;;;;;;4992700;28;20023;-75
2020/12/18 09:56:10;;;;;;;2.83;2.10;;;9.00;82.40;;;;;;4978076;28;20146;-77
2020/12/18 09:58:36;;;;;;;2.63;1.88;;;9.00;82.40;;;;;;4979111;28;20475;-80
2020/12/18 10:01:03;;;;;;;3.03;1.85;;;9.10;82.50;;;;;;5009007;28;20026;-77
2020/12/18 10:03:29;;;;;;;2.70;1.80;;;9.10;82.40;;;;;;4992523;28;20097;-77
2020/12/18 10:05:55;;;;;;;2.33;1.80;;;9.10;82.40;;;;;;4973441;28;20050;-77
2020/12/18 10:08:22;;;;;;;2.45;1.90;;;9.10;82.40;;;;;;4978085;28;20031;-77
2020/12/18 10:10:48;;;;;;;3.35;2.05;;;9.20;82.40;;;;;;4977238;28;20038;-77
2020/12/18 10:13:17;;;;;;;4.68;2.03;;;9.20;82.40;;;;;;4996362;28;20072;-78
2020/12/18 10:15:43;;;;;;;2.45;1.80;;;9.20;82.40;;;;;;4985553;28;20065;-77
2020/12/18 10:18:09;;;;;;;2.40;2.00;;;9.20;82.40;;;;;;4994777;28;20495;-76
2020/12/18 10:20:35;;;;;;;2.90;1.90;;;9.20;82.40;;;;;;4993774;28;20110;-76
2020/12/18 10:23:01;;;;;;;3.08;2.22;;;9.20;82.30;;;;;;4990042;28;20451;-76
2020/12/18 10:25:27;;;;;;;2.78;2.25;;;9.30;82.40;;;;;;4974172;28;20027;-75
2020/12/18 10:27:53;;;;;;;4.00;2.25;;;9.30;82.40;;;;;;5006689;28;20034;-76
2020/12/18 10:30:20;;;;;;;3.00;1.90;;;9.30;82.30;;;;;;4993966;28;20113;-75
2020/12/18 10:32:46;;;;;;;2.92;1.90;;;9.30;82.30;;;;;;4982646;28;20056;-76
2020/12/18 10:35:12;;;;;;;2.40;1.98;;;9.40;82.30;;;;;;5003629;28;20088;-75
2020/12/18 10:37:38;;;;;;;3.28;2.28;;;9.40;82.30;;;;;;5014954;28;20031;-74
2020/12/18 10:40:05;;;;;;;2.58;1.83;;;9.40;82.30;;;;;;4976917;28;20035;-74
2020/12/18 10:42:32;;;;;;;3.25;2.13;;;9.40;82.30;;;;;;5003879;28;20113;-74
2020/12/18 10:44:57;;;;;;;2.40;2.00;;;9.40;82.20;;;;;;4993270;28;20023;-75
2020/12/18 10:47:23;;;;;;;3.78;2.35;;;9.40;82.20;;;;;;4978953;28;20047;-76
2020/12/18 10:49:49;;;;;;;2.97;1.90;;;9.40;82.20;;;;;;4960594;28;20129;-75
2020/12/18 10:52:15;;;;;;;3.67;2.15;;;9.50;82.30;;;;;;4977316;28;20471;-75
2020/12/18 10:54:41;;;;;;;2.08;1.73;;;9.50;82.30;;;;;;4993008;28;20450;-74
2020/12/18 10:57:06;;;;;;;2.25;1.75;;;9.50;82.20;;;;;;4992271;28;20034;-74
2020/12/18 10:59:33;;;;;;;2.75;1.90;;;9.50;82.20;;;;;;4976727;28;20038;-74
2020/12/18 11:02:00;;;;;;;2.92;2.15;;;9.50;82.20;;;;;;4978450;28;20026;-76
2020/12/18 11:04:26;;;;;;;3.13;2.30;;;9.60;82.20;;;;;;4976340;28;20037;-76
2020/12/18 11:06:52;;;;;;;3.92;2.10;;;9.60;82.20;;;;;;4992509;28;20046;-75
2020/12/18 11:09:19;;;;;;;2.78;2.00;;;9.60;82.30;;;;;;4976319;28;20022;-75
2020/12/18 11:11:45;;;;;;;1.95;1.77;;;9.60;82.20;;;;;;5011321;28;20037;-78
2020/12/18 11:14:11;;;;;;;3.75;2.00;;;9.60;82.30;;;;;;4992436;28;20030;-77
2020/12/18 11:16:37;;;;;;;2.90;2.10;;;9.60;82.30;;;;;;4976722;28;20092;-76
2020/12/18 11:19:04;;;;;;;3.55;2.13;;;9.60;82.20;;;;;;4975352;28;20022;-76
2020/12/18 11:21:30;;;;;;;2.97;1.98;;;9.70;82.30;;;;;;4988603;28;20446;-76
2020/12/18 11:23:57;;;;;;;2.83;2.00;;;9.70;82.30;;;;;;4988481;28;20022;-77
2020/12/18 11:26:25;;;;;;;3.25;2.10;;;9.70;82.40;;;;;;4972108;28;20395;-77
2020/12/18 11:28:51;;;;;;;3.42;2.08;;;9.70;82.40;;;;;;5005131;28;21644;-76
2020/12/18 11:31:17;;;;;;;4.15;2.10;;;9.70;82.40;;;;;;4988403;28;20054;-77
2020/12/18 11:33:43;;;;;;;3.10;1.90;;;9.80;82.40;;;;;;5004072;28;20038;-75
2020/12/18 11:36:09;;;;;;;2.92;2.13;;;9.70;82.30;;;;;;4972668;28;20026;-75
2020/12/18 11:38:35;;;;;;;3.35;2.05;;;9.80;82.40;;;;;;4987550;28;20376;-75
2020/12/18 11:41:01;;;;;;;2.25;2.00;;;9.80;82.40;;;;;;4988926;28;20033;-75
2020/12/18 11:43:27;;;;;;;3.30;2.28;;;9.80;82.40;;;;;;4988950;28;20023;-76
2020/12/18 11:45:53;;;;;;;3.42;2.08;;;9.80;82.40;;;;;;5013106;28;20042;-74
2020/12/18 11:48:19;;;;;;;2.50;1.88;;;9.90;82.50;;;;;;4972390;28;20030;-76
2020/12/18 11:50:46;;;;;;;2.90;2.03;;;9.90;82.50;;;;;;4974244;28;20026;-75
2020/12/18 11:53:11;;;;;;;2.70;2.10;;;9.90;82.50;;;;;;4991667;28;20037;-75
2020/12/18 11:55:37;;;;;;;2.33;1.90;;;9.90;82.50;;;;;;4975789;28;20390;-74
2020/12/18 11:58:03;;;;;;;3.08;2.10;;;9.90;82.50;;;;;;4991168;28;20048;-75
2020/12/18 12:00:30;;;;;;;4.18;2.00;;;9.90;82.50;;;;;;4992758;28;20052;-74
2020/12/18 12:02:55;;;;;;;2.13;1.90;;;10.00;82.50;;;;;;4991649;28;20050;-73
2020/12/18 12:05:23;;;;;;;3.88;2.20;;;10.00;82.50;;;;;;4991538;28;20120;-74
2020/12/18 12:07:49;;;;;;;2.90;2.10;;;10.00;82.50;;;;;;4991482;28;20048;-75
2020/12/18 12:10:17;;;;;;;3.38;2.08;;;10.00;82.50;;;;;;4992033;28;20034;-73
2020/12/18 12:12:44;;;;;;;3.55;1.85;;;10.00;82.50;;;;;;5008062;28;20030;-74
2020/12/18 12:15:10;;;;;;;3.72;2.00;;;10.00;82.60;;;;;;5006651;28;20022;-75
2020/12/18 12:17:35;;;;;;;2.13;1.88;;;10.10;82.60;;;;;;4991050;28;20030;-73
2020/12/18 12:20:02;;;;;;;3.30;1.90;;;10.10;82.60;;;;;;4990548;28;20037;-74
2020/12/18 12:22:28;;;;;;;2.63;1.95;;;10.10;82.60;;;;;;4991380;28;20117;-74
2020/12/18 12:24:55;;;;;;;3.08;2.22;;;10.10;82.60;;;;;;4990873;28;20121;-74
2020/12/18 12:27:26;;;;;;;4.18;2.20;;;10.10;82.50;;;;;;4991410;28;20054;-74
2020/12/18 12:29:52;;;;;;;3.10;2.13;;;10.20;82.60;;;;;;5006568;28;20057;-77
2020/12/18 12:32:18;;;;;;;3.70;2.17;;;10.20;82.60;;;;;;4990909;28;20054;-76
2020/12/18 12:34:44;;;;;;;3.67;2.10;;;10.20;82.50;;;;;;4991525;28;20367;-73
2020/12/18 12:37:11;;;;;;;2.22;1.85;;;10.20;82.50;;;;;;5007135;28;20031;-74
2020/12/18 12:39:38;;;;;;;4.28;2.10;;;10.30;82.60;;;;;;4991410;28;20026;-74
2020/12/18 12:42:04;;;;;;;3.40;2.15;;;10.30;82.60;;;;;;4992068;28;20084;-73
2020/12/18 12:44:30;;;;;;;2.85;1.92;;;10.30;82.60;;;;;;5002203;28;20045;-75
2020/12/18 12:46:56;;;;;;;3.63;1.92;;;10.30;82.60;;;;;;4972737;28;20027;-73
2020/12/18 12:49:26;;;;;;;4.18;1.85;;;10.40;82.60;;;;;;4988236;28;20479;-74
2020/12/18 12:51:54;;;;;;;4.10;2.00;;;10.40;82.60;;;;;;5004322;28;20026;-74
2020/12/18 12:54:20;;;;;;;3.70;2.08;;;10.40;82.60;;;;;;5007687;28;20506;-73
2020/12/18 12:56:46;;;;;;;2.28;1.85;;;10.50;82.60;;;;;;4974885;28;20026;-73
2020/12/18 12:59:12;;;;;;;3.72;1.90;;;10.50;82.50;;;;;;4991182;28;20066;-72
2020/12/18 13:01:38;;;;;;;3.10;2.00;;;10.50;82.40;;;;;;4991572;28;20475;-73
2020/12/18 13:04:03;;;;;;;2.47;1.63;;;10.50;82.40;;;;;;4990241;28;20058;-72
2020/12/18 13:06:29;;;;;;;3.15;1.75;;;10.60;82.50;;;;;;4991679;28;20046;-72
2020/12/18 13:08:55;;;;;;;3.65;1.70;;;10.60;82.40;;;;;;4990696;28;20034;-73
2020/12/18 13:11:20;;;;;;;2.83;1.70;;;10.60;82.40;;;;;;4990551;28;20038;-72
2020/12/18 13:13:46;;;;;;;2.05;1.70;;;10.70;82.50;;;;;;4974721;28;20034;-73
2020/12/18 13:16:21;;;;;;;3.05;1.90;;;10.70;82.40;;;;;;4974502;28;20035;-73
2020/12/18 13:18:47;;;;;;;2.63;1.80;;;10.70;82.50;;;;;;4988118;28;20030;-76